createdAt,value
2022-09-12T00:16:07.609Z,95.3
2022-09-12T00:36:14.312Z,95.8
2022-09-12T00:55:47.074Z,96.3
2022-09-12T01:16:45.126Z,96.7
2022-09-12T01:35:57.004Z,96.3
2022-09-12T01:56:31.713Z,96.5
2022-09-12T02:16:08.832Z,96.6
2022-09-12T02:36:26.784Z,97
2022-09-12T02:56:13.152Z,97.2
2022-09-12T03:16:06.295Z,97.4
2022-09-12T03:35:37.454Z,97.2
2022-09-12T03:56:23.247Z,97.6
2022-09-12T04:17:00.067Z,97.2
2022-09-12T04:35:13.224Z,97.5
2022-09-12T04:55:12.102Z,97.4
2022-09-12T05:14:59.901Z,97.2
2022-09-12T05:36:53.322Z,97.3
2022-09-12T05:56:34.232Z,97.6
2022-09-12T06:16:23.379Z,97.1
2022-09-12T06:35:38.215Z,96.5
2022-09-12T06:56:41.674Z,95.9
2022-09-12T07:15:05.567Z,95.8
2022-09-12T07:36:15.501Z,94.8
2022-09-12T07:57:15.548Z,93.7
2022-09-12T08:16:12.236Z,93.4
2022-09-12T08:36:08.762Z,91.7
2022-09-12T08:56:29.687Z,90.8
2022-09-12T09:15:37.896Z,88.1
2022-09-12T09:35:18.089Z,85.9
2022-09-12T09:56:30.776Z,82.6
2022-09-12T10:16:32.294Z,77.7
2022-09-12T10:35:43.661Z,65.8
2022-09-12T10:56:27.840Z,62
2022-09-12T11:16:10.212Z,55.9
2022-09-12T11:36:05.712Z,55.3
2022-09-12T11:56:05.289Z,53.1
2022-09-12T12:16:25.276Z,51.3
2022-09-12T12:36:40.078Z,48.5
2022-09-12T12:56:39.778Z,46.9
2022-09-12T13:16:02.170Z,47.2
2022-09-12T13:36:03.784Z,47.2
2022-09-12T13:56:21.297Z,46.1
2022-09-12T14:15:33.316Z,46.8
2022-09-12T14:36:45.284Z,49.2
2022-09-12T14:56:26.318Z,46.1
2022-09-12T15:15:12.329Z,48.4
2022-09-12T15:35:58.725Z,48.1
2022-09-12T15:57:19.813Z,50.4
2022-09-12T16:15:31.637Z,51.1
2022-09-12T16:35:43.038Z,52.8
2022-09-12T16:55:55.695Z,54.7
2022-09-12T17:15:36.055Z,55.8
2022-09-12T17:35:44.663Z,61.5
2022-09-12T17:56:23.147Z,66.8
2022-09-12T18:16:18.835Z,70.2
2022-09-12T18:35:13.452Z,73.1
2022-09-12T19:16:25.073Z,76.9
2022-09-12T19:36:43.604Z,79.1
2022-09-12T19:56:26.020Z,81.2
2022-09-12T20:15:30.564Z,82.9
2022-09-12T20:35:40.770Z,84.4
2022-09-12T20:55:23.301Z,84.9
2022-09-12T21:16:39.316Z,86
2022-09-12T21:35:52.033Z,87.1
2022-09-12T21:56:01.533Z,88.2
2022-09-12T22:15:53.379Z,88.7
2022-09-12T22:35:36.987Z,89.3
2022-09-12T22:55:13.071Z,89.9
2022-09-12T23:15:43.675Z,90.9
2022-09-12T23:36:26.652Z,91
2022-09-12T23:55:26.120Z,91.1
